createdAt,value
2019-01-26T00:00:37.210Z,35.67
2019-01-26T00:03:23.939Z,36.87
2019-01-26T00:06:11.018Z,29.60
2019-01-26T00:08:58.408Z,27.83
2019-01-26T00:11:45.965Z,26.30
2019-01-26T00:14:33.302Z,29.20
2019-01-26T00:17:20.233Z,31.70
2019-01-26T00:20:07.517Z,28.47
2019-01-26T00:22:54.513Z,32.40
2019-01-26T00:25:41.734Z,33.20
2019-01-26T00:28:28.483Z,29.23
2019-01-26T00:31:15.293Z,27.10
2019-01-26T00:34:02.850Z,22.03
2019-01-26T00:36:49.893Z,28.90
2019-01-26T00:39:37.566Z,25.17
2019-01-26T00:42:24.831Z,18.77
2019-01-26T00:45:11.503Z,22.70
2019-01-26T00:47:58.880Z,21.27
2019-01-26T00:50:46.278Z,23.80
2019-01-26T00:53:33.392Z,20.50
2019-01-26T00:56:20.435Z,19.63
2019-01-26T00:59:07.200Z,29.73
2019-01-26T01:01:54.512Z,24.90
2019-01-26T01:04:42.271Z,20.50
2019-01-26T01:07:29.378Z,24.17
2019-01-26T01:10:16.521Z,19.40
2019-01-26T01:13:03.426Z,22.23
2019-01-26T01:15:50.480Z,21.00
2019-01-26T01:18:37.804Z,25.47
2019-01-26T01:21:24.718Z,17.80
2019-01-26T01:24:11.636Z,20.47
2019-01-26T01:26:58.913Z,24.10
2019-01-26T01:29:45.985Z,12.30
2019-01-26T01:32:32.924Z,24.40
2019-01-26T01:35:19.962Z,14.53
2019-01-26T01:38:07.097Z,25.90
2019-01-26T01:40:54.328Z,15.67
2019-01-26T01:43:41.214Z,18.60
2019-01-26T01:46:27.889Z,20.43
2019-01-26T01:49:15.257Z,15.70
2019-01-26T01:52:02.408Z,16.80
2019-01-26T01:54:49.672Z,13.03
2019-01-26T01:57:36.588Z,22.27
2019-01-26T02:00:24.670Z,18.33
2019-01-26T02:03:11.644Z,17.40
2019-01-26T02:05:58.593Z,21.17
2019-01-26T02:08:45.696Z,15.17
2019-01-26T02:11:32.745Z,22.83
2019-01-26T02:14:20.052Z,19.50
2019-01-26T02:17:07.085Z,15.03
2019-01-26T02:19:54.206Z,15.10
2019-01-26T02:22:41.269Z,18.23
2019-01-26T02:25:28.612Z,16.40
2019-01-26T02:28:15.790Z,15.23
2019-01-26T02:31:03.077Z,14.30
2019-01-26T02:33:50.508Z,14.83
2019-01-26T02:36:37.803Z,12.90
2019-01-26T02:39:25.557Z,10.50
2019-01-26T02:42:12.470Z,16.60
2019-01-26T02:44:59.495Z,9.03
2019-01-26T02:47:46.315Z,11.73
2019-01-26T02:50:33.413Z,10.90
2019-01-26T02:53:20.577Z,10.50
2019-01-26T02:56:07.319Z,7.67
2019-01-26T02:58:54.287Z,7.50
2019-01-26T03:01:41.149Z,6.47
2019-01-26T03:04:28.449Z,6.23
2019-01-26T03:07:15.769Z,6.13
2019-01-26T03:10:03.005Z,5.20
2019-01-26T03:12:49.990Z,7.27
2019-01-26T03:15:37.132Z,5.53
2019-01-26T03:18:24.150Z,2.43
2019-01-26T03:21:11.140Z,2.50
2019-01-26T03:23:58.309Z,4.80
2019-01-26T03:26:45.135Z,11.03
2019-01-26T03:29:31.891Z,4.23
2019-01-26T03:32:18.819Z,7.83
2019-01-26T03:35:06.077Z,10.03
2019-01-26T03:37:53.132Z,8.33
2019-01-26T03:40:40.517Z,2.20
2019-01-26T03:43:27.861Z,3.07
2019-01-26T03:46:14.929Z,5.27
2019-01-26T03:49:01.790Z,3.27
2019-01-26T03:51:48.668Z,2.50
2019-01-26T03:54:35.410Z,3.70
2019-01-26T03:57:22.147Z,3.80
2019-01-26T04:00:10.619Z,9.27
2019-01-26T04:02:57.097Z,2.63
2019-01-26T04:05:43.852Z,6.10
2019-01-26T04:08:30.811Z,1.80
2019-01-26T04:11:17.471Z,3.13
2019-01-26T04:14:04.864Z,3.10
2019-01-26T04:16:51.781Z,3.90
2019-01-26T04:19:38.823Z,7.20
2019-01-26T04:22:26.162Z,3.10
2019-01-26T04:25:13.230Z,3.40
2019-01-26T04:28:00.300Z,13.17
2019-01-26T04:30:47.393Z,3.00
2019-01-26T04:33:34.309Z,7.87
2019-01-26T04:36:21.521Z,3.77
2019-01-26T04:39:08.520Z,2.73
2019-01-26T04:41:55.351Z,2.63
2019-01-26T04:44:42.393Z,3.43
2019-01-26T04:47:31.120Z,3.87
2019-01-26T04:50:18.351Z,4.57
2019-01-26T04:53:05.535Z,4.80
2019-01-26T04:55:52.763Z,1.83
2019-01-26T04:58:39.773Z,2.23
2019-01-26T05:01:26.890Z,9.00
2019-01-26T05:04:13.679Z,6.53
2019-01-26T05:07:00.604Z,7.33
2019-01-26T05:09:47.284Z,2.10
2019-01-26T05:12:34.269Z,6.20
2019-01-26T05:15:20.950Z,10.83
2019-01-26T05:18:08.416Z,2.90
2019-01-26T05:20:55.629Z,2.90
2019-01-26T05:23:42.822Z,3.50
2019-01-26T05:26:29.847Z,7.90
2019-01-26T05:29:17.299Z,2.37
2019-01-26T05:32:04.308Z,5.23
2019-01-26T05:34:51.231Z,1.77
2019-01-26T05:37:38.240Z,2.70
2019-01-26T05:40:25.576Z,2.63
2019-01-26T05:43:12.567Z,6.50
2019-01-26T05:45:59.469Z,3.20
2019-01-26T05:48:46.580Z,4.20
2019-01-26T05:51:33.668Z,4.77
2019-01-26T05:54:20.694Z,6.83
2019-01-26T05:57:07.454Z,3.43
2019-01-26T05:59:54.645Z,4.93
2019-01-26T06:02:41.879Z,1.63
2019-01-26T06:05:28.895Z,5.13
2019-01-26T06:08:16.008Z,3.07
2019-01-26T06:11:03.098Z,2.33
2019-01-26T06:13:49.928Z,8.13
2019-01-26T06:16:36.823Z,7.17
2019-01-26T06:19:23.909Z,4.27
2019-01-26T06:22:10.883Z,2.30
2019-01-26T06:24:57.979Z,5.10
2019-01-26T06:27:45.192Z,6.63
2019-01-26T06:30:32.187Z,1.80
2019-01-26T06:33:19.396Z,2.37
2019-01-26T06:36:06.217Z,2.53
2019-01-26T06:38:53.577Z,3.43
2019-01-26T06:41:40.540Z,2.80
2019-01-26T06:44:27.727Z,1.93
2019-01-26T06:47:14.671Z,3.30
2019-01-26T06:50:01.656Z,9.07
2019-01-26T06:52:48.920Z,2.80
2019-01-26T06:55:35.888Z,4.30
2019-01-26T06:58:23.247Z,13.93
2019-01-26T07:01:13.348Z,30.07
2019-01-26T07:04:00.321Z,2.63
2019-01-26T07:07:05.200Z,6.90
2019-01-26T07:09:52.124Z,4.90
2019-01-26T07:12:39.292Z,3.40
2019-01-26T07:15:26.841Z,3.10
2019-01-26T07:18:14.243Z,2.43
2019-01-26T07:21:01.595Z,3.33
2019-01-26T07:23:48.591Z,3.83
2019-01-26T07:26:35.593Z,2.13
2019-01-26T07:29:22.413Z,5.33
2019-01-26T07:32:09.481Z,4.37
2019-01-26T07:34:56.773Z,8.27
2019-01-26T07:37:44.093Z,2.53
2019-01-26T07:40:31.470Z,3.43
2019-01-26T07:43:18.696Z,1.90
2019-01-26T07:46:05.867Z,8.77
2019-01-26T07:48:53.030Z,3.33
2019-01-26T07:51:40.000Z,4.03
2019-01-26T07:54:27.294Z,2.70
2019-01-26T07:57:14.467Z,1.80
2019-01-26T08:00:01.776Z,3.03
2019-01-26T08:02:49.104Z,3.30
2019-01-26T08:05:36.231Z,3.00
2019-01-26T08:08:23.574Z,2.63
2019-01-26T08:11:10.714Z,3.80
2019-01-26T08:13:57.605Z,3.73
2019-01-26T08:16:44.572Z,1.87
2019-01-26T08:19:31.657Z,5.20
2019-01-26T08:22:18.655Z,4.50
2019-01-26T08:25:05.660Z,3.00
2019-01-26T08:27:52.809Z,3.10
2019-01-26T08:30:39.842Z,2.63
2019-01-26T08:33:26.866Z,8.33
2019-01-26T08:36:14.383Z,2.63
2019-01-26T08:39:01.873Z,4.23
2019-01-26T12:53:39.514Z,4.03
2019-01-26T12:56:26.706Z,4.50
2019-01-26T12:59:13.663Z,2.73
2019-01-26T13:05:21.808Z,4.37
2019-01-26T16:18:54.276Z,4.40
2019-01-26T16:21:41.770Z,3.77
2019-01-26T16:24:28.982Z,3.20
2019-01-26T16:27:16.027Z,2.83
2019-01-26T16:30:03.062Z,3.70
2019-01-26T16:32:50.472Z,3.03
2019-01-26T16:35:37.505Z,7.80
2019-01-26T16:38:25.006Z,3.20
2019-01-26T16:41:12.489Z,2.70
2019-01-26T16:44:00.646Z,4.50
2019-01-26T16:46:47.919Z,3.00
2019-01-26T16:49:35.097Z,2.27
2019-01-26T16:52:22.622Z,3.30
2019-01-26T16:55:10.351Z,2.20
2019-01-26T16:57:57.674Z,3.53
2019-01-26T17:00:46.113Z,3.67
2019-01-26T17:03:33.247Z,2.03
2019-01-26T17:06:20.106Z,2.80
2019-01-26T17:09:08.629Z,3.87
2019-01-26T17:11:55.644Z,2.47
2019-01-26T17:14:43.519Z,8.17
2019-01-26T17:17:30.985Z,3.50
2019-01-26T17:20:22.319Z,4.10
2019-01-26T17:23:09.795Z,3.83
2019-01-26T17:25:56.833Z,3.63
2019-01-26T17:28:44.031Z,4.07
2019-01-26T17:31:30.743Z,3.97
2019-01-26T17:34:17.566Z,3.30
2019-01-26T17:37:05.082Z,3.93
2019-01-26T17:39:52.663Z,5.33
2019-01-26T17:42:39.437Z,4.37
2019-01-26T17:45:26.392Z,5.20
2019-01-26T17:48:13.444Z,4.77
2019-01-26T17:51:00.645Z,1.93
2019-01-26T17:53:47.909Z,4.87
2019-01-26T17:56:35.445Z,4.90
2019-01-26T17:59:22.503Z,3.43
2019-01-26T18:02:09.458Z,4.77
2019-01-26T18:04:56.575Z,3.37
2019-01-26T18:07:43.683Z,3.00
2019-01-26T18:10:30.823Z,3.47
2019-01-26T18:13:18.171Z,4.13
2019-01-26T18:16:05.693Z,2.67
2019-01-26T18:18:53.783Z,5.20
2019-01-26T18:21:41.008Z,4.27
2019-01-26T18:24:28.388Z,3.20
2019-01-26T18:27:15.975Z,5.47
2019-01-26T18:30:03.287Z,3.63
2019-01-26T18:32:50.863Z,2.03
2019-01-26T18:35:38.281Z,5.70
2019-01-26T18:38:28.006Z,5.00
2019-01-26T18:41:15.838Z,5.77
2019-01-26T18:44:03.683Z,4.77
2019-01-26T18:46:50.562Z,4.73
2019-01-26T18:49:37.611Z,4.73
2019-01-26T18:52:25.046Z,3.37
2019-01-26T18:55:12.266Z,9.13
2019-01-26T18:57:59.808Z,5.13
2019-01-26T19:00:47.889Z,3.87
2019-01-26T19:03:44.246Z,4.57
2019-01-26T19:06:31.298Z,7.67
2019-01-26T19:09:18.483Z,8.93
2019-01-26T19:12:05.482Z,4.03
2019-01-26T19:14:52.851Z,5.50
2019-01-26T19:17:40.145Z,3.70
2019-01-26T19:20:27.874Z,7.70
2019-01-26T19:23:14.846Z,6.37
2019-01-26T19:26:02.215Z,5.90
2019-01-26T19:28:49.412Z,3.27
2019-01-26T19:31:36.265Z,6.27
2019-01-26T19:34:23.689Z,6.03
2019-01-26T19:37:10.969Z,6.37
2019-01-26T19:39:58.167Z,4.50
2019-01-26T19:42:45.451Z,6.10
2019-01-26T19:45:32.814Z,6.53
2019-01-26T19:48:20.287Z,6.87
2019-01-26T19:51:10.049Z,5.37
2019-01-26T19:53:56.611Z,7.23
2019-01-26T19:56:43.402Z,5.97
2019-01-26T19:59:30.374Z,6.67
2019-01-26T20:02:17.093Z,4.90
2019-01-26T20:05:05.624Z,7.00
2019-01-26T20:07:52.862Z,4.50
2019-01-26T20:10:41.534Z,4.30
2019-01-26T20:13:28.345Z,8.43
2019-01-26T20:16:15.954Z,6.27
2019-01-26T20:19:03.221Z,6.10
2019-01-26T20:21:50.744Z,3.83
2019-01-26T20:24:37.888Z,4.50
2019-01-26T20:27:24.956Z,11.63
2019-01-26T20:30:13.732Z,6.37
2019-01-26T20:33:01.126Z,9.40
2019-01-26T20:35:51.119Z,5.60
2019-01-26T20:38:38.233Z,8.93
2019-01-26T20:41:25.263Z,7.93
2019-01-26T20:44:12.715Z,8.97
2019-01-26T20:46:59.933Z,11.90
2019-01-26T20:49:46.859Z,5.40
2019-01-26T20:52:35.517Z,8.20
2019-01-26T20:55:22.651Z,10.30
2019-01-26T20:58:09.762Z,8.13
2019-01-26T21:00:57.229Z,8.13
2019-01-26T21:03:44.189Z,10.50
2019-01-26T21:06:30.971Z,7.80
2019-01-26T21:09:18.107Z,6.80
2019-01-26T21:12:05.310Z,9.27
2019-01-26T21:14:52.429Z,7.43
2019-01-26T21:17:40.452Z,6.30
2019-01-26T21:20:27.662Z,6.53
2019-01-26T21:23:14.927Z,11.27
2019-01-26T21:26:02.059Z,8.57
2019-01-26T21:28:49.204Z,8.67
2019-01-26T21:31:36.561Z,9.10
2019-01-26T21:34:24.437Z,10.27
2019-01-26T21:37:11.410Z,9.20
2019-01-26T21:39:58.398Z,7.07
2019-01-26T21:42:45.821Z,11.67
2019-01-26T21:45:33.066Z,10.77
2019-01-26T21:48:21.403Z,8.90
2019-01-26T21:51:08.427Z,9.57
2019-01-26T21:53:55.442Z,15.00
2019-01-26T21:56:42.876Z,8.60
2019-01-26T21:59:30.034Z,11.67
2019-01-26T22:02:17.030Z,10.00
2019-01-26T22:05:04.866Z,9.40
2019-01-26T22:07:52.260Z,10.27
2019-01-26T22:10:39.064Z,10.40
2019-01-26T22:13:27.298Z,10.70
2019-01-26T22:16:14.448Z,11.87
2019-01-26T22:19:01.743Z,14.80
2019-01-26T22:21:49.195Z,12.83
2019-01-26T22:24:36.571Z,14.60
2019-01-26T22:27:23.940Z,8.80
2019-01-26T22:30:12.625Z,11.83
2019-01-26T22:33:00.214Z,10.37
2019-01-26T22:35:47.401Z,15.40
2019-01-26T22:38:35.183Z,13.77
2019-01-26T22:41:22.182Z,13.67
2019-01-26T22:44:08.982Z,7.57
2019-01-26T22:46:56.282Z,15.07
2019-01-26T22:49:43.916Z,13.20
2019-01-26T22:52:30.917Z,13.20
2019-01-26T22:55:18.188Z,11.80
2019-01-26T22:58:05.823Z,13.33
2019-01-26T23:00:56.735Z,13.80
2019-01-26T23:04:05.813Z,11.93
2019-01-26T23:07:02.741Z,9.40
2019-01-26T23:10:18.121Z,11.57
2019-01-26T23:13:08.026Z,10.70
2019-01-26T23:16:08.051Z,11.87
2019-01-26T23:19:04.152Z,14.10
2019-01-26T23:22:08.808Z,10.07
2019-01-26T23:25:00.810Z,14.70
2019-01-26T23:27:53.662Z,19.70
2019-01-26T23:30:58.323Z,10.57
2019-01-26T23:33:45.647Z,14.13
2019-01-26T23:36:32.841Z,12.93
2019-01-26T23:39:20.163Z,12.87
2019-01-26T23:42:07.397Z,12.93
2019-01-26T23:44:55.662Z,11.77
2019-01-26T23:47:43.187Z,9.70
2019-01-26T23:50:30.455Z,16.67
2019-01-26T23:53:17.996Z,16.00
2019-01-26T23:56:05.130Z,14.70
2019-01-26T23:58:52.291Z,10.40
